KNLC/NLC METAR and TAF weather

Enter ICAO airport designator
Station Type Date Time Source
KNLC METAR 2020/01/26 00:56 UTC NOAA

KNLC 260056Z AUTO 00000KT 8SM CLR 15/10 A3011 RMK AO2 SLP196 T01500100


Station Type Date Time Source
KNLC Decoded METAR 2020/01/26 00:56 UTC NOAA

LEMOORE NAVAL AIR STATION, CA, United States (KNLC) 36-20N 119-57W 72M
Jan 25, 2020 - 07:56 PM EST / 2020.01.26 0056 UTC
Wind: Calm:0
Visibility: 8 mile(s):0
Sky conditions: clear
Temperature: 59.0 F (15.0 C)
Dew Point: 50.0 F (10.0 C)
Relative Humidity: 72%
Pressure (altimeter): 30.11 in. Hg (1019 hPa)
ob: KNLC 260056Z AUTO 00000KT 8SM CLR 15/10 A3011 RMK AO2 SLP196 T01500100
cycle: 1

Station Type Date Time Source
KNLC TAF 2020/01/24 23:59 UTC NOAA

TAF KNLC 2423/2523 VRB06KT 9000 HZ FEW018 BKN200 QNH3007INS
BECMG 1803/1805 VRB06KT 4800 BR FEW022 BKN200 QNH3005INS
BECMG 1807/1809 VRB06KT 2400 BR FEW008 BKN200 QNH3007INS
TEMPO 1109/1115 VRB06KT 0400 FG VV001 T07/2513Z T16/2523Z FS30012

Example: see airport list